createdAt,value
2023-05-22T00:01:51.897Z,100683.48
2023-05-22T00:04:21.481Z,100683.26
2023-05-22T00:06:49.317Z,100681.00
2023-05-22T00:09:16.195Z,100679.08
2023-05-22T00:11:43.029Z,100678.23
2023-05-22T00:14:09.800Z,100676.99
2023-05-22T00:16:36.600Z,100673.05
2023-05-22T00:19:03.931Z,100672.02
2023-05-22T00:21:34.756Z,100667.93
2023-05-22T00:24:02.240Z,100668.56
2023-05-22T00:26:29.051Z,100672.86
2023-05-22T00:28:56.008Z,100671.54
2023-05-22T00:31:23.766Z,100671.65
2023-05-22T00:33:50.593Z,100668.00
2023-05-22T00:36:18.802Z,100665.77
2023-05-22T00:38:46.384Z,100665.88
2023-05-22T00:41:13.579Z,100668.14
2023-05-22T00:43:40.470Z,100664.23
2023-05-22T00:46:10.128Z,100665.09
2023-05-22T00:48:37.016Z,100662.41
2023-05-22T00:51:04.177Z,100665.33
2023-05-22T00:53:31.659Z,100663.10
2023-05-22T00:55:59.807Z,100662.88
2023-05-22T00:58:27.474Z,100664.75
2023-05-22T01:00:55.609Z,100664.59
2023-05-22T01:03:26.875Z,100663.87
2023-05-22T01:05:54.933Z,100662.30
2023-05-22T01:08:22.098Z,100659.23
2023-05-22T01:10:54.721Z,100656.42
2023-05-22T01:13:34.305Z,100654.45
2023-05-22T01:16:22.248Z,100653.92
2023-05-22T01:18:55.730Z,100655.94
2023-05-22T01:21:37.119Z,100659.55
2023-05-22T01:24:18.999Z,100656.25
2023-05-22T01:27:25.973Z,100658.46
2023-05-22T01:30:21.125Z,100654.83
2023-05-22T01:32:49.570Z,100649.73
2023-05-22T01:35:19.024Z,100653.07
2023-05-22T01:37:46.659Z,100650.12
2023-05-22T01:40:13.857Z,100653.09
2023-05-22T01:42:41.369Z,100645.77
2023-05-22T01:45:11.958Z,100646.52
2023-05-22T01:47:38.790Z,100644.29
2023-05-22T01:50:06.794Z,100640.20
2023-05-22T01:52:48.383Z,100642.60
2023-05-22T01:55:27.610Z,100641.67
2023-05-22T01:58:06.067Z,100644.08
2023-05-22T02:00:33.720Z,100643.31
2023-05-22T02:03:07.717Z,100643.31
2023-05-22T02:05:38.982Z,100638.06
2023-05-22T02:08:06.863Z,100640.66
2023-05-22T02:10:35.269Z,100640.40
2023-05-22T02:13:02.427Z,100643.03
2023-05-22T02:15:29.715Z,100645.89
2023-05-22T02:18:00.306Z,100648.54
2023-05-22T02:20:27.273Z,100646.98
2023-05-22T02:22:53.992Z,100648.50
2023-05-22T02:25:20.947Z,100646.89
2023-05-22T02:27:48.068Z,100653.31
2023-05-22T02:30:15.110Z,100654.11
2023-05-22T02:32:42.679Z,100654.15
2023-05-22T02:35:09.846Z,100646.52
2023-05-22T02:37:37.153Z,100641.85
2023-05-22T02:40:07.838Z,100646.21
2023-05-22T02:42:34.836Z,100645.41
2023-05-22T02:45:02.464Z,100642.61
2023-05-22T02:47:29.752Z,100642.69
2023-05-22T02:49:58.004Z,100642.52
2023-05-22T02:52:25.211Z,100640.33
2023-05-22T02:54:51.975Z,100637.89
2023-05-22T02:57:19.271Z,100638.23
2023-05-22T02:59:46.129Z,100642.48
2023-05-22T03:02:15.021Z,100643.81
2023-05-22T03:04:42.099Z,100646.60
2023-05-22T03:07:09.039Z,100644.85
2023-05-22T03:09:36.241Z,100646.73
2023-05-22T03:12:03.538Z,100651.67
2023-05-22T03:14:30.721Z,100649.09
2023-05-22T03:16:58.967Z,100649.63
2023-05-22T03:19:26.725Z,100645.15
2023-05-22T03:21:53.776Z,100647.72
2023-05-22T03:24:21.797Z,100640.37
2023-05-22T03:26:48.648Z,100642.77
2023-05-22T03:29:19.827Z,100646.13
2023-05-22T03:31:46.637Z,100646.45
2023-05-22T03:34:14.560Z,100645.52
2023-05-22T03:36:42.542Z,100640.85
2023-05-22T03:39:09.223Z,100642.55
2023-05-22T03:41:39.526Z,100638.77
2023-05-22T03:44:07.422Z,100638.61
2023-05-22T03:46:34.256Z,100644.87
2023-05-22T03:49:01.056Z,100642.67
2023-05-22T03:51:27.818Z,100646.48
2023-05-22T03:53:54.583Z,100639.98
2023-05-22T03:56:21.403Z,100637.15
2023-05-22T03:58:48.779Z,100638.98
2023-05-22T04:01:16.929Z,100641.02
2023-05-22T04:03:44.003Z,100642.94
2023-05-22T04:06:10.961Z,100640.99
2023-05-22T04:08:39.453Z,100638.66
2023-05-22T04:11:06.359Z,100639.04
2023-05-22T04:13:33.276Z,100640.59
2023-05-22T04:16:02.026Z,100636.70
2023-05-22T04:18:28.943Z,100632.39
2023-05-22T04:20:57.536Z,100627.65
2023-05-22T04:23:24.320Z,100623.10
2023-05-22T04:25:51.597Z,100622.48
2023-05-22T04:28:22.463Z,100619.29
2023-05-22T04:30:49.454Z,100622.42
2023-05-22T04:33:18.234Z,100622.33
2023-05-22T04:35:45.062Z,100620.80
2023-05-22T04:38:11.858Z,100616.78
2023-05-22T04:40:38.972Z,100615.83
2023-05-22T04:43:06.256Z,100612.95
2023-05-22T04:45:33.116Z,100611.30
2023-05-22T04:48:02.861Z,100609.85
2023-05-22T04:50:36.041Z,100611.64
2023-05-22T04:53:06.000Z,100611.28
2023-05-22T04:55:34.165Z,100609.67
2023-05-22T04:58:01.547Z,100609.27
2023-05-22T05:00:29.243Z,100608.88
2023-05-22T05:02:57.608Z,100608.16
2023-05-22T05:05:25.042Z,100604.19
2023-05-22T05:07:53.361Z,100606.08
2023-05-22T05:10:20.296Z,100609.48
2023-05-22T05:12:47.242Z,100608.29
2023-05-22T05:15:14.127Z,100610.13
2023-05-22T05:17:41.203Z,100605.48
2023-05-22T05:20:08.553Z,100608.33
2023-05-22T05:22:35.944Z,100613.21
2023-05-22T05:25:05.467Z,100614.73
2023-05-22T05:27:32.577Z,100613.71
2023-05-22T05:29:59.700Z,100611.63
2023-05-22T05:32:36.882Z,100613.45
2023-05-22T05:35:23.584Z,100613.48
2023-05-22T05:38:01.725Z,100607.18
2023-05-22T05:40:28.987Z,100606.02
2023-05-22T05:42:56.337Z,100602.98
2023-05-22T05:45:26.259Z,100590.81
2023-05-22T05:47:53.247Z,100600.83
2023-05-22T05:50:20.351Z,100600.76
2023-05-22T05:52:47.799Z,100598.08
2023-05-22T05:55:17.060Z,100598.82
2023-05-22T05:57:44.052Z,100598.73
2023-05-22T06:00:15.997Z,100599.07
2023-05-22T06:02:43.719Z,100604.88
2023-05-22T06:18:43.153Z,100597.95
2023-05-22T06:21:10.030Z,100589.79
2023-05-22T06:23:36.734Z,100585.64
2023-05-22T06:26:04.567Z,100582.55
2023-05-22T06:28:31.957Z,100598.98
2023-05-22T06:30:59.120Z,100594.60
2023-05-22T06:33:26.507Z,100582.23
2023-05-22T06:35:54.772Z,100581.38
2023-05-22T06:38:21.446Z,100581.66
2023-05-22T06:40:49.092Z,100575.89
2023-05-22T06:43:19.346Z,100578.48
2023-05-22T06:45:50.747Z,100596.83
2023-05-22T06:48:33.195Z,100588.60
2023-05-22T06:51:10.910Z,100577.55
2023-05-22T06:53:38.244Z,100584.30
2023-05-22T06:56:07.129Z,100586.95
2023-05-22T06:58:44.310Z,100589.27
2023-05-22T07:01:10.961Z,100573.16
2023-05-22T07:03:42.472Z,100570.04
2023-05-22T07:08:13.672Z,100576.88
2023-05-22T07:10:40.722Z,100576.55
2023-05-22T07:13:07.718Z,100579.57
2023-05-22T07:15:35.057Z,100573.96
2023-05-22T07:18:03.235Z,100568.86
2023-05-22T07:20:30.164Z,100573.65
2023-05-22T07:23:09.060Z,100570.16
2023-05-22T07:25:36.364Z,100558.34
2023-05-22T07:28:08.876Z,100553.95
2023-05-22T07:30:39.729Z,100552.54
2023-05-22T07:33:07.342Z,100558.30
2023-05-22T07:35:35.078Z,100571.31
2023-05-22T07:38:01.965Z,100570.04
2023-05-22T07:40:28.999Z,100563.58
2023-05-22T07:42:55.845Z,100565.47
2023-05-22T07:45:22.759Z,100560.62
2023-05-22T07:47:49.895Z,100543.12
2023-05-22T07:50:16.857Z,100538.35
2023-05-22T07:52:44.944Z,100546.50
2023-05-22T07:55:11.961Z,100550.70
2023-05-22T07:57:39.509Z,100546.59
2023-05-22T08:00:14.626Z,100564.27
2023-05-22T08:02:41.736Z,100547.06
2023-05-22T08:05:09.769Z,100525.27
2023-05-22T08:07:37.170Z,100535.19
2023-05-22T08:10:07.889Z,100530.36
2023-05-22T08:12:35.038Z,100533.33
2023-05-22T08:15:02.056Z,100552.52
2023-05-22T08:17:28.936Z,100540.59
2023-05-22T08:19:55.942Z,100538.85
2023-05-22T08:22:22.832Z,100533.90
2023-05-22T08:24:49.592Z,100549.19
2023-05-22T08:27:16.579Z,100548.67
2023-05-22T08:29:43.531Z,100524.81
2023-05-22T08:32:10.300Z,100533.14
2023-05-22T08:34:37.087Z,100536.76
2023-05-22T08:37:05.352Z,100531.59
2023-05-22T08:39:32.446Z,100548.17
2023-05-22T08:41:59.419Z,100535.66
2023-05-22T08:44:26.434Z,100532.20
2023-05-22T08:46:56.585Z,100537.46
2023-05-22T08:49:24.491Z,100526.53
2023-05-22T08:51:56.403Z,100525.62
2023-05-22T08:54:26.439Z,100539.15
2023-05-22T08:56:57.294Z,100544.45
2023-05-22T08:59:24.935Z,100540.09
2023-05-22T09:01:52.917Z,100532.43
2023-05-22T09:04:23.874Z,100540.92
2023-05-22T09:06:51.906Z,100544.96
2023-05-22T09:09:18.775Z,100536.77
2023-05-22T09:11:45.967Z,100542.34
2023-05-22T09:14:13.091Z,100530.77
2023-05-22T09:16:47.528Z,100519.67
2023-05-22T09:19:15.282Z,100511.75
2023-05-22T09:21:43.326Z,100524.57
2023-05-22T09:24:11.197Z,100528.54
2023-05-22T09:26:41.454Z,100521.52
2023-05-22T09:29:08.656Z,100521.66
2023-05-22T09:31:42.221Z,100525.67
2023-05-22T09:34:10.732Z,100523.23
2023-05-22T09:36:37.533Z,100519.05
2023-05-22T09:39:06.078Z,100524.79
2023-05-22T09:41:38.948Z,100511.62
2023-05-22T09:44:16.070Z,100506.33
2023-05-22T09:46:46.147Z,100503.30
2023-05-22T09:49:16.062Z,100511.75
2023-05-22T09:51:47.773Z,100505.44
2023-05-22T09:54:16.138Z,100499.30
2023-05-22T09:56:44.791Z,100501.65
2023-05-22T09:59:13.929Z,100498.30
2023-05-22T10:01:42.791Z,100502.48
2023-05-22T10:04:14.444Z,100504.95
2023-05-22T10:06:46.234Z,100507.15
2023-05-22T10:09:19.304Z,100491.23
2023-05-22T10:11:57.066Z,100487.42
2023-05-22T10:14:24.542Z,100492.72
2023-05-22T10:16:51.593Z,100494.61
2023-05-22T10:19:18.790Z,100495.21
2023-05-22T10:21:47.441Z,100485.16
2023-05-22T10:24:14.845Z,100477.77
2023-05-22T10:26:43.013Z,100481.86
2023-05-22T10:29:15.337Z,100480.08
2023-05-22T10:32:01.745Z,100466.92
2023-05-22T10:34:58.577Z,100476.56
2023-05-22T10:37:41.188Z,100469.09
2023-05-22T10:40:10.658Z,100469.72
2023-05-22T10:42:38.689Z,100475.03
2023-05-22T10:45:09.135Z,100482.77
2023-05-22T10:47:36.235Z,100475.84
2023-05-22T10:50:12.361Z,100473.36
2023-05-22T10:52:40.239Z,100464.16
2023-05-22T10:55:09.223Z,100454.90
2023-05-22T10:57:40.178Z,100442.56
2023-05-22T11:00:13.269Z,100461.90
2023-05-22T11:02:45.323Z,100446.39
2023-05-22T11:05:20.992Z,100442.57
2023-05-22T11:07:48.455Z,100449.94
2023-05-22T11:10:26.208Z,100445.25
2023-05-22T11:13:12.409Z,100441.30
2023-05-22T11:15:45.095Z,100443.28
2023-05-22T11:18:12.064Z,100434.98
2023-05-22T11:20:40.188Z,100430.23
2023-05-22T11:23:08.235Z,100430.88
2023-05-22T11:25:36.670Z,100427.73
2023-05-22T11:28:05.814Z,100443.48
2023-05-22T11:30:34.257Z,100439.89
2023-05-22T11:33:02.157Z,100436.27
2023-05-22T11:35:29.531Z,100433.48
2023-05-22T11:37:58.929Z,100428.96
2023-05-22T11:40:29.525Z,100426.80
2023-05-22T11:42:56.987Z,100418.35
2023-05-22T11:45:24.144Z,100413.96
2023-05-22T11:47:51.507Z,100415.98
2023-05-22T11:50:29.268Z,100408.43
2023-05-22T11:53:02.915Z,100413.92
2023-05-22T11:55:30.352Z,100427.68
2023-05-22T11:57:58.360Z,100429.83
2023-05-22T12:00:26.267Z,100420.64
2023-05-22T12:02:55.080Z,100411.20
2023-05-22T12:05:22.468Z,100411.13
2023-05-22T12:07:49.931Z,100406.25
2023-05-22T12:10:17.296Z,100402.18
2023-05-22T12:12:45.011Z,100405.01
2023-05-22T12:15:12.674Z,100395.61
2023-05-22T12:17:40.263Z,100395.94
2023-05-22T12:20:07.963Z,100398.29
2023-05-22T12:22:42.301Z,100402.48
2023-05-22T12:25:14.272Z,100396.95
2023-05-22T12:27:44.351Z,100387.98
2023-05-22T12:30:15.453Z,100393.52
2023-05-22T12:32:50.808Z,100392.27
2023-05-22T12:35:19.493Z,100388.75
2023-05-22T12:37:51.503Z,100388.80
2023-05-22T12:40:19.280Z,100389.07
2023-05-22T12:42:47.954Z,100383.63
2023-05-22T12:45:15.482Z,100376.39
2023-05-22T12:47:42.960Z,100367.31
2023-05-22T12:50:10.559Z,100363.09
2023-05-22T12:52:37.870Z,100360.30
2023-05-22T12:55:05.599Z,100363.51
2023-05-22T12:57:32.834Z,100358.45
2023-05-22T13:00:00.279Z,100356.07
2023-05-22T13:02:31.136Z,100353.73
2023-05-22T13:05:02.271Z,100332.90
2023-05-22T13:07:29.677Z,100354.48
2023-05-22T13:09:56.981Z,100356.51
2023-05-22T13:12:24.486Z,100349.92
2023-05-22T13:14:51.895Z,100348.79
2023-05-22T13:17:19.135Z,100345.04
2023-05-22T13:19:46.548Z,100340.98
2023-05-22T13:22:14.853Z,100344.73
2023-05-22T13:24:42.142Z,100342.05
2023-05-22T13:27:09.498Z,100342.33
2023-05-22T13:29:36.773Z,100339.02
2023-05-22T13:32:04.741Z,100344.40
2023-05-22T13:34:32.085Z,100336.14
2023-05-22T13:36:59.547Z,100330.37
2023-05-22T13:39:26.851Z,100336.79
2023-05-22T13:41:54.319Z,100346.19
2023-05-22T13:44:21.989Z,100344.16
2023-05-22T13:46:49.466Z,100333.41
2023-05-22T13:49:17.216Z,100320.20
2023-05-22T13:51:44.520Z,100330.47
2023-05-22T13:54:11.844Z,100337.48
2023-05-22T13:56:39.080Z,100331.77
2023-05-22T13:59:09.161Z,100332.86
2023-05-22T14:01:36.837Z,100328.56
2023-05-22T14:04:04.696Z,100327.48
2023-05-22T14:06:31.985Z,100334.44
2023-05-22T14:08:59.897Z,100335.90
2023-05-22T14:11:27.876Z,100326.83
2023-05-22T14:13:55.175Z,100328.16
2023-05-22T14:16:22.833Z,100326.21
2023-05-22T14:18:50.461Z,100322.09
2023-05-22T14:21:18.931Z,100325.20
2023-05-22T14:23:46.373Z,100318.40
2023-05-22T14:26:14.450Z,100315.20
2023-05-22T14:28:42.367Z,100312.91
2023-05-22T14:31:09.752Z,100313.29
2023-05-22T14:33:37.497Z,100311.50
2023-05-22T14:36:05.483Z,100314.33
2023-05-22T14:38:33.796Z,100311.02
2023-05-22T14:41:01.688Z,100310.48
2023-05-22T14:43:29.130Z,100309.17
2023-05-22T14:45:58.095Z,100310.58
2023-05-22T14:48:26.565Z,100297.10
2023-05-22T14:50:54.121Z,100298.52
2023-05-22T14:53:21.757Z,100295.80
2023-05-22T14:55:49.304Z,100289.12
2023-05-22T14:58:16.604Z,100287.16
2023-05-22T15:00:45.154Z,100285.69
2023-05-22T15:03:13.545Z,100281.29
2023-05-22T15:05:40.986Z,100290.42
2023-05-22T15:08:08.414Z,100286.02
2023-05-22T15:10:36.490Z,100284.23
2023-05-22T15:13:03.990Z,100291.68
2023-05-22T15:15:31.387Z,100290.74
2023-05-22T15:18:02.618Z,100286.34
2023-05-22T15:20:31.102Z,100282.77
2023-05-22T15:23:00.008Z,100282.54
2023-05-22T15:25:27.774Z,100282.38
2023-05-22T15:27:55.051Z,100280.05
2023-05-22T15:30:23.500Z,100282.10
2023-05-22T15:32:50.933Z,100281.89
2023-05-22T15:35:18.196Z,100281.55
2023-05-22T15:37:45.733Z,100279.65
2023-05-22T15:40:16.384Z,100284.98
2023-05-22T15:42:43.769Z,100283.40
2023-05-22T15:45:11.201Z,100286.71
2023-05-22T15:47:38.509Z,100288.55
2023-05-22T15:50:06.122Z,100290.34
2023-05-22T15:52:33.374Z,100282.69
2023-05-22T15:55:00.768Z,100279.85
2023-05-22T15:57:30.989Z,100279.85
2023-05-22T15:59:58.241Z,100279.04
2023-05-22T16:02:25.637Z,100285.17
2023-05-22T16:04:52.967Z,100283.48
2023-05-22T16:07:20.710Z,100284.42
2023-05-22T16:09:50.219Z,100280.13
2023-05-22T16:12:18.387Z,100282.88
2023-05-22T16:14:45.794Z,100284.13
2023-05-22T16:17:13.686Z,100286.87
2023-05-22T16:19:41.062Z,100285.40
2023-05-22T16:22:08.536Z,100286.25
2023-05-22T16:24:35.966Z,100286.43
2023-05-22T16:27:03.549Z,100285.88
2023-05-22T16:29:32.572Z,100289.63
2023-05-22T16:32:00.107Z,100293.08
2023-05-22T16:34:27.455Z,100296.64
2023-05-22T16:36:54.720Z,100297.10
2023-05-22T16:39:22.054Z,100297.52
2023-05-22T16:41:51.507Z,100299.88
2023-05-22T16:44:20.295Z,100302.54
2023-05-22T16:46:49.582Z,100303.71
2023-05-22T16:49:17.142Z,100307.38
2023-05-22T16:51:44.656Z,100306.55
2023-05-22T16:54:11.938Z,100308.52
2023-05-22T16:56:39.257Z,100306.70
2023-05-22T16:59:06.716Z,100310.19
2023-05-22T17:01:34.235Z,100308.70
2023-05-22T17:04:01.559Z,100312.31
2023-05-22T17:06:30.068Z,100313.20
2023-05-22T17:08:57.824Z,100311.68
2023-05-22T17:11:26.132Z,100312.73
2023-05-22T17:13:53.525Z,100315.79
2023-05-22T17:16:21.192Z,100318.89
2023-05-22T17:18:48.580Z,100318.02
2023-05-22T17:21:17.552Z,100317.44
2023-05-22T17:23:44.918Z,100316.42
2023-05-22T17:26:14.266Z,100317.36
2023-05-22T17:28:41.556Z,100316.44
2023-05-22T17:31:09.024Z,100317.71
2023-05-22T17:33:36.340Z,100318.55
2023-05-22T17:36:04.020Z,100316.48
2023-05-22T17:38:31.388Z,100314.85
2023-05-22T17:41:00.852Z,100319.24
2023-05-22T17:43:28.249Z,100318.57
2023-05-22T17:45:55.618Z,100319.36
2023-05-22T17:48:27.303Z,100322.92
2023-05-22T17:50:54.893Z,100320.48
2023-05-22T17:53:22.421Z,100324.48
2023-05-22T17:55:52.304Z,100329.21
2023-05-22T17:58:20.618Z,100329.64
2023-05-22T18:00:48.798Z,100325.08
2023-05-22T18:03:20.368Z,100329.28
2023-05-22T18:05:51.321Z,100329.91
2023-05-22T18:08:19.142Z,100331.48
2023-05-22T18:10:46.449Z,100333.02
2023-05-22T18:13:13.755Z,100333.52
2023-05-22T18:15:41.296Z,100336.09
2023-05-22T18:18:10.612Z,100338.33
2023-05-22T18:20:38.900Z,100333.02
2023-05-22T18:23:06.639Z,100328.65
2023-05-22T18:25:34.267Z,100338.48
2023-05-22T18:28:01.604Z,100340.40
2023-05-22T18:30:29.124Z,100340.67
2023-05-22T18:32:56.574Z,100339.41
2023-05-22T18:35:23.941Z,100336.88
2023-05-22T18:37:51.464Z,100336.24
2023-05-22T18:40:18.813Z,100336.20
2023-05-22T18:42:46.132Z,100335.52
2023-05-22T18:45:13.581Z,100334.52
2023-05-22T18:47:41.575Z,100337.27
2023-05-22T18:50:09.786Z,100336.86
2023-05-22T18:52:38.005Z,100335.34
2023-05-22T18:55:07.397Z,100334.45
2023-05-22T18:57:34.718Z,100334.96
2023-05-22T19:00:02.068Z,100334.70
2023-05-22T19:14:40.212Z,100327.92
2023-05-22T19:35:54.815Z,100327.69
2023-05-22T19:38:22.701Z,100324.56
2023-05-22T19:40:49.976Z,100324.17
2023-05-22T19:43:16.780Z,100327.26
2023-05-22T19:45:44.635Z,100328.15
2023-05-22T19:48:11.365Z,100331.22
2023-05-22T19:50:38.709Z,100334.52
2023-05-22T19:53:05.423Z,100334.21
2023-05-22T19:55:32.152Z,100334.27
2023-05-22T19:57:58.726Z,100329.75
2023-05-22T20:00:30.662Z,100334.17
2023-05-22T20:02:59.260Z,100333.55
2023-05-22T20:05:26.026Z,100333.94
2023-05-22T20:07:53.655Z,100335.84
2023-05-22T20:10:20.330Z,100335.20
2023-05-22T20:12:47.028Z,100335.89
2023-05-22T20:15:14.981Z,100333.88
2023-05-22T20:17:46.701Z,100336.10
2023-05-22T20:20:13.487Z,100339.61
2023-05-22T20:22:39.955Z,100338.81
2023-05-22T20:25:08.155Z,100338.81
2023-05-22T20:27:35.063Z,100338.04
2023-05-22T20:30:02.065Z,100336.45
2023-05-22T20:32:29.425Z,100333.38
2023-05-22T20:34:56.241Z,100333.48
2023-05-22T20:37:23.237Z,100333.54
2023-05-22T20:39:51.226Z,100332.60
2023-05-22T20:42:19.798Z,100332.27
2023-05-22T20:44:46.849Z,100331.17
2023-05-22T20:47:13.657Z,100330.06
2023-05-22T20:49:41.968Z,100328.84
2023-05-22T20:52:09.451Z,100326.23
2023-05-22T20:54:36.184Z,100324.25
2023-05-22T20:57:03.176Z,100325.02
2023-05-22T20:59:30.386Z,100325.47
2023-05-22T21:01:57.286Z,100320.52
2023-05-22T21:04:25.427Z,100323.83
2023-05-22T21:06:52.164Z,100321.28
2023-05-22T21:09:19.072Z,100307.31
2023-05-22T21:11:46.299Z,100319.27
2023-05-22T21:14:13.641Z,100321.19
2023-05-22T21:16:40.441Z,100322.84
2023-05-22T21:19:07.037Z,100321.37
2023-05-22T21:21:35.647Z,100322.77
2023-05-22T21:24:03.337Z,100317.77
2023-05-22T21:26:30.618Z,100321.37
2023-05-22T21:28:57.409Z,100324.38
2023-05-22T21:31:24.026Z,100324.15
2023-05-22T21:33:50.777Z,100323.86
2023-05-22T21:36:17.411Z,100322.66
2023-05-22T21:38:44.373Z,100324.48
2023-05-22T21:41:11.933Z,100323.69
2023-05-22T21:43:38.767Z,100327.41
2023-05-22T21:46:05.245Z,100327.51
2023-05-22T21:48:33.121Z,100325.16
2023-05-22T21:50:59.886Z,100323.65
2023-05-22T21:53:26.563Z,100325.02
2023-05-22T21:55:52.955Z,100322.36
2023-05-22T21:58:19.347Z,100322.98
2023-05-22T22:00:46.036Z,100324.61
2023-05-22T22:03:12.687Z,100327.13
2023-05-22T22:05:39.556Z,100325.28
2023-05-22T22:08:06.030Z,100323.25
2023-05-22T22:10:32.801Z,100325.45
2023-05-22T22:13:01.104Z,100327.05
2023-05-22T22:15:27.846Z,100332.20
2023-05-22T22:17:59.381Z,100337.21
2023-05-22T22:20:42.589Z,100338.50
2023-05-22T22:23:11.316Z,100337.91
2023-05-22T22:25:38.335Z,100338.29
2023-05-22T22:28:05.336Z,100337.73
2023-05-22T22:30:32.000Z,100337.82
2023-05-22T22:32:59.267Z,100338.52
2023-05-22T22:35:26.034Z,100339.21
2023-05-22T22:37:52.585Z,100334.36
2023-05-22T22:40:19.202Z,100333.84
2023-05-22T22:42:45.908Z,100333.30
2023-05-22T22:45:13.931Z,100332.61
2023-05-22T22:47:40.900Z,100331.19
2023-05-22T22:50:09.415Z,100329.73
2023-05-22T22:52:37.179Z,100328.24
2023-05-22T22:55:05.526Z,100312.52
2023-05-22T22:57:32.622Z,100318.01
2023-05-22T22:59:59.215Z,100316.91
2023-05-22T23:02:25.772Z,100317.89
2023-05-22T23:04:52.277Z,100319.02
2023-05-22T23:07:19.220Z,100314.61
2023-05-22T23:09:46.350Z,100310.39
2023-05-22T23:12:12.827Z,100289.27
2023-05-22T23:14:39.337Z,100306.75
2023-05-22T23:17:11.896Z,100303.96
2023-05-22T23:19:38.460Z,100303.51
2023-05-22T23:22:05.301Z,100305.80
2023-05-22T23:24:31.854Z,100308.19
2023-05-22T23:26:58.506Z,100306.10
2023-05-22T23:29:25.611Z,100306.02
2023-05-22T23:31:52.603Z,100305.78
2023-05-22T23:34:19.813Z,100299.80
2023-05-22T23:36:46.531Z,100297.06
2023-05-22T23:39:13.186Z,100300.55
2023-05-22T23:41:39.852Z,100299.08
2023-05-22T23:44:07.653Z,100287.54
2023-05-22T23:46:36.646Z,100304.14
2023-05-22T23:49:03.177Z,100305.12
2023-05-22T23:51:30.589Z,100301.18
2023-05-22T23:53:57.158Z,100302.02
2023-05-22T23:56:23.776Z,100302.44
2023-05-22T23:58:50.221Z,100303.17
